sensor_id;sensor_type;location;lat;lon;timestamp;P1;durP1;ratioP1;P2;durP2;ratioP2
11771;SDS011;12556;55.748;13.194;2022-11-15T00:02:23;42.63;;;26.27;;
11771;SDS011;12556;55.748;13.194;2022-11-15T00:04:51;41.67;;;26.07;;
11771;SDS011;12556;55.748;13.194;2022-11-15T00:07:18;39.73;;;25.73;;
11771;SDS011;12556;55.748;13.194;2022-11-15T00:09:45;48.67;;;26.83;;
11771;SDS011;12556;55.748;13.194;2022-11-15T00:12:12;42.97;;;26.50;;
11771;SDS011;12556;55.748;13.194;2022-11-15T00:14:39;40.17;;;24.50;;
11771;SDS011;12556;55.748;13.194;2022-11-15T00:17:06;42.03;;;24.93;;
11771;SDS011;12556;55.748;13.194;2022-11-15T00:19:33;38.87;;;24.10;;
11771;SDS011;12556;55.748;13.194;2022-11-15T00:22:01;40.63;;;23.97;;
11771;SDS011;12556;55.748;13.194;2022-11-15T00:24:28;37.17;;;25.33;;
11771;SDS011;12556;55.748;13.194;2022-11-15T00:26:55;43.73;;;25.53;;
11771;SDS011;12556;55.748;13.194;2022-11-15T00:29:22;40.90;;;24.43;;
11771;SDS011;12556;55.748;13.194;2022-11-15T00:31:49;41.40;;;26.33;;
11771;SDS011;12556;55.748;13.194;2022-11-15T00:34:16;38.53;;;24.50;;
11771;SDS011;12556;55.748;13.194;2022-11-15T00:36:42;38.23;;;24.33;;
11771;SDS011;12556;55.748;13.194;2022-11-15T00:39:11;41.90;;;24.50;;
11771;SDS011;12556;55.748;13.194;2022-11-15T00:41:38;37.83;;;23.70;;
11771;SDS011;12556;55.748;13.194;2022-11-15T00:44:05;32.63;;;22.33;;
11771;SDS011;12556;55.748;13.194;2022-11-15T00:46:32;42.67;;;25.37;;
11771;SDS011;12556;55.748;13.194;2022-11-15T00:48:59;38.67;;;23.70;;
11771;SDS011;12556;55.748;13.194;2022-11-15T00:51:25;35.80;;;23.77;;
11771;SDS011;12556;55.748;13.194;2022-11-15T00:54:10;33.43;;;22.57;;
11771;SDS011;12556;55.748;13.194;2022-11-15T00:56:37;31.47;;;22.47;;
11771;SDS011;12556;55.748;13.194;2022-11-15T00:59:03;39.00;;;24.10;;
11771;SDS011;12556;55.748;13.194;2022-11-15T01:01:30;36.50;;;23.20;;
11771;SDS011;12556;55.748;13.194;2022-11-15T01:03:57;35.27;;;23.33;;
11771;SDS011;12556;55.748;13.194;2022-11-15T01:06:24;33.67;;;22.43;;
11771;SDS011;12556;55.748;13.194;2022-11-15T01:08:51;37.93;;;22.63;;
11771;SDS011;12556;55.748;13.194;2022-11-15T01:11:19;36.80;;;23.90;;
11771;SDS011;12556;55.748;13.194;2022-11-15T01:13:46;38.93;;;23.83;;
11771;SDS011;12556;55.748;13.194;2022-11-15T01:16:13;35.60;;;23.57;;
11771;SDS011;12556;55.748;13.194;2022-11-15T01:18:43;38.57;;;25.20;;
11771;SDS011;12556;55.748;13.194;2022-11-15T01:21:11;38.73;;;24.93;;
11771;SDS011;12556;55.748;13.194;2022-11-15T01:23:40;39.77;;;23.60;;
11771;SDS011;12556;55.748;13.194;2022-11-15T01:26:09;31.70;;;22.57;;
11771;SDS011;12556;55.748;13.194;2022-11-15T01:28:40;36.40;;;23.37;;
11771;SDS011;12556;55.748;13.194;2022-11-15T01:31:09;37.50;;;24.43;;
11771;SDS011;12556;55.748;13.194;2022-11-15T01:33:39;34.60;;;22.73;;
11771;SDS011;12556;55.748;13.194;2022-11-15T01:36:07;36.87;;;22.27;;
11771;SDS011;12556;55.748;13.194;2022-11-15T01:38:37;31.33;;;21.73;;
11771;SDS011;12556;55.748;13.194;2022-11-15T01:41:04;42.27;;;25.10;;
11771;SDS011;12556;55.748;13.194;2022-11-15T01:43:32;35.83;;;23.37;;
11771;SDS011;12556;55.748;13.194;2022-11-15T01:46:02;37.30;;;22.43;;
11771;SDS011;12556;55.748;13.194;2022-11-15T01:48:33;38.13;;;24.03;;
11771;SDS011;12556;55.748;13.194;2022-11-15T01:51:01;39.87;;;24.87;;
11771;SDS011;12556;55.748;13.194;2022-11-15T01:53:31;35.43;;;23.33;;
11771;SDS011;12556;55.748;13.194;2022-11-15T01:56:00;35.33;;;23.93;;
11771;SDS011;12556;55.748;13.194;2022-11-15T01:58:30;36.37;;;24.43;;
11771;SDS011;12556;55.748;13.194;2022-11-15T02:00:57;37.90;;;24.20;;
11771;SDS011;12556;55.748;13.194;2022-11-15T02:03:29;39.80;;;24.47;;
11771;SDS011;12556;55.748;13.194;2022-11-15T02:06:03;39.67;;;25.10;;
11771;SDS011;12556;55.748;13.194;2022-11-15T02:08:31;35.57;;;24.97;;
11771;SDS011;12556;55.748;13.194;2022-11-15T02:10:58;37.87;;;24.67;;
11771;SDS011;12556;55.748;13.194;2022-11-15T02:13:24;35.80;;;24.53;;
11771;SDS011;12556;55.748;13.194;2022-11-15T02:15:55;35.37;;;23.40;;
11771;SDS011;12556;55.748;13.194;2022-11-15T02:18:32;38.83;;;24.80;;
11771;SDS011;12556;55.748;13.194;2022-11-15T02:21:09;37.93;;;25.27;;
11771;SDS011;12556;55.748;13.194;2022-11-15T02:23:50;37.07;;;23.10;;
11771;SDS011;12556;55.748;13.194;2022-11-15T02:26:42;35.47;;;23.03;;
11771;SDS011;12556;55.748;13.194;2022-11-15T02:29:22;32.93;;;22.50;;
11771;SDS011;12556;55.748;13.194;2022-11-15T02:32:03;34.47;;;23.40;;
11771;SDS011;12556;55.748;13.194;2022-11-15T02:34:35;34.83;;;22.90;;
11771;SDS011;12556;55.748;13.194;2022-11-15T02:37:11;38.13;;;24.03;;
11771;SDS011;12556;55.748;13.194;2022-11-15T02:39:49;39.03;;;23.60;;
11771;SDS011;12556;55.748;13.194;2022-11-15T02:42:19;38.67;;;24.60;;
11771;SDS011;12556;55.748;13.194;2022-11-15T02:45:24;34.17;;;22.57;;
11771;SDS011;12556;55.748;13.194;2022-11-15T02:47:57;35.27;;;24.40;;
11771;SDS011;12556;55.748;13.194;2022-11-15T02:50:28;37.00;;;24.33;;
11771;SDS011;12556;55.748;13.194;2022-11-15T02:52:57;38.07;;;23.83;;
11771;SDS011;12556;55.748;13.194;2022-11-15T02:55:25;38.30;;;25.73;;
11771;SDS011;12556;55.748;13.194;2022-11-15T02:57:57;37.27;;;23.70;;
11771;SDS011;12556;55.748;13.194;2022-11-15T03:00:47;38.27;;;24.10;;
11771;SDS011;12556;55.748;13.194;2022-11-15T03:03:32;34.93;;;22.60;;
11771;SDS011;12556;55.748;13.194;2022-11-15T03:06:14;41.40;;;24.37;;
11771;SDS011;12556;55.748;13.194;2022-11-15T03:08:49;33.43;;;23.90;;
11771;SDS011;12556;55.748;13.194;2022-11-15T03:11:23;34.60;;;22.93;;
11771;SDS011;12556;55.748;13.194;2022-11-15T03:13:52;34.73;;;23.40;;
11771;SDS011;12556;55.748;13.194;2022-11-15T03:16:24;30.47;;;21.97;;
11771;SDS011;12556;55.748;13.194;2022-11-15T03:18:59;34.67;;;22.23;;
11771;SDS011;12556;55.748;13.194;2022-11-15T03:21:30;32.80;;;22.20;;
11771;SDS011;12556;55.748;13.194;2022-11-15T03:24:00;32.53;;;21.80;;
11771;SDS011;12556;55.748;13.194;2022-11-15T03:26:29;37.07;;;23.07;;
11771;SDS011;12556;55.748;13.194;2022-11-15T03:29:00;34.37;;;22.70;;
11771;SDS011;12556;55.748;13.194;2022-11-15T03:31:32;36.77;;;23.87;;
11771;SDS011;12556;55.748;13.194;2022-11-15T03:34:19;34.40;;;24.60;;
11771;SDS011;12556;55.748;13.194;2022-11-15T03:36:51;35.47;;;24.83;;
11771;SDS011;12556;55.748;13.194;2022-11-15T03:39:18;37.00;;;24.63;;
11771;SDS011;12556;55.748;13.194;2022-11-15T03:41:47;38.97;;;24.60;;
11771;SDS011;12556;55.748;13.194;2022-11-15T03:44:21;35.30;;;23.53;;
11771;SDS011;12556;55.748;13.194;2022-11-15T03:46:55;36.73;;;23.90;;
11771;SDS011;12556;55.748;13.194;2022-11-15T03:49:29;38.47;;;24.50;;
11771;SDS011;12556;55.748;13.194;2022-11-15T03:51:59;39.07;;;24.70;;
11771;SDS011;12556;55.748;13.194;2022-11-15T03:54:27;35.57;;;23.43;;
11771;SDS011;12556;55.748;13.194;2022-11-15T03:56:54;37.83;;;24.33;;
11771;SDS011;12556;55.748;13.194;2022-11-15T03:59:21;39.37;;;24.97;;
11771;SDS011;12556;55.748;13.194;2022-11-15T04:01:48;37.10;;;23.30;;
11771;SDS011;12556;55.748;13.194;2022-11-15T04:04:15;36.83;;;23.87;;
11771;SDS011;12556;55.748;13.194;2022-11-15T04:06:43;35.17;;;23.67;;
11771;SDS011;12556;55.748;13.194;2022-11-15T04:09:10;37.63;;;23.80;;
11771;SDS011;12556;55.748;13.194;2022-11-15T04:11:37;36.97;;;24.10;;
11771;SDS011;12556;55.748;13.194;2022-11-15T04:14:04;35.20;;;24.40;;
11771;SDS011;12556;55.748;13.194;2022-11-15T04:16:31;37.93;;;24.80;;
11771;SDS011;12556;55.748;13.194;2022-11-15T04:18:58;39.43;;;24.07;;
11771;SDS011;12556;55.748;13.194;2022-11-15T04:21:43;40.50;;;24.00;;
11771;SDS011;12556;55.748;13.194;2022-11-15T04:24:28;38.50;;;24.93;;
11771;SDS011;12556;55.748;13.194;2022-11-15T04:26:54;40.23;;;24.33;;
11771;SDS011;12556;55.748;13.194;2022-11-15T04:29:21;39.83;;;23.60;;
11771;SDS011;12556;55.748;13.194;2022-11-15T04:32:00;35.90;;;22.80;;
11771;SDS011;12556;55.748;13.194;2022-11-15T04:34:27;38.50;;;24.70;;
11771;SDS011;12556;55.748;13.194;2022-11-15T04:36:55;38.43;;;24.53;;
11771;SDS011;12556;55.748;13.194;2022-11-15T04:39:37;37.67;;;25.63;;
11771;SDS011;12556;55.748;13.194;2022-11-15T04:42:05;37.67;;;24.27;;
11771;SDS011;12556;55.748;13.194;2022-11-15T04:44:31;40.73;;;26.13;;
11771;SDS011;12556;55.748;13.194;2022-11-15T04:46:58;43.07;;;27.20;;
11771;SDS011;12556;55.748;13.194;2022-11-15T04:49:25;39.47;;;25.53;;
11771;SDS011;12556;55.748;13.194;2022-11-15T04:51:52;36.47;;;24.93;;
11771;SDS011;12556;55.748;13.194;2022-11-15T04:54:20;38.83;;;25.53;;
11771;SDS011;12556;55.748;13.194;2022-11-15T04:56:47;39.20;;;25.43;;
11771;SDS011;12556;55.748;13.194;2022-11-15T04:59:14;39.67;;;25.83;;
11771;SDS011;12556;55.748;13.194;2022-11-15T05:01:41;41.00;;;25.10;;
11771;SDS011;12556;55.748;13.194;2022-11-15T05:04:08;44.90;;;25.23;;
11771;SDS011;12556;55.748;13.194;2022-11-15T05:06:49;40.53;;;25.50;;
11771;SDS011;12556;55.748;13.194;2022-11-15T05:09:16;40.33;;;25.67;;
11771;SDS011;12556;55.748;13.194;2022-11-15T05:11:45;39.80;;;25.90;;
11771;SDS011;12556;55.748;13.194;2022-11-15T05:14:12;41.97;;;25.27;;
11771;SDS011;12556;55.748;13.194;2022-11-15T05:16:40;38.80;;;25.83;;
11771;SDS011;12556;55.748;13.194;2022-11-15T05:19:07;36.73;;;25.57;;
11771;SDS011;12556;55.748;13.194;2022-11-15T05:21:34;43.40;;;25.67;;
11771;SDS011;12556;55.748;13.194;2022-11-15T05:24:02;37.80;;;25.03;;
11771;SDS011;12556;55.748;13.194;2022-11-15T05:26:29;43.00;;;27.57;;
11771;SDS011;12556;55.748;13.194;2022-11-15T05:28:58;41.67;;;26.67;;
11771;SDS011;12556;55.748;13.194;2022-11-15T05:31:25;43.23;;;27.07;;
11771;SDS011;12556;55.748;13.194;2022-11-15T05:33:53;38.90;;;25.47;;
11771;SDS011;12556;55.748;13.194;2022-11-15T05:36:22;39.33;;;25.67;;
11771;SDS011;12556;55.748;13.194;2022-11-15T05:38:53;41.30;;;26.07;;
11771;SDS011;12556;55.748;13.194;2022-11-15T05:41:21;39.53;;;26.23;;
11771;SDS011;12556;55.748;13.194;2022-11-15T05:43:52;40.50;;;25.93;;
11771;SDS011;12556;55.748;13.194;2022-11-15T05:46:21;40.53;;;24.87;;
11771;SDS011;12556;55.748;13.194;2022-11-15T05:48:48;41.37;;;25.83;;
11771;SDS011;12556;55.748;13.194;2022-11-15T05:51:17;42.13;;;26.13;;
11771;SDS011;12556;55.748;13.194;2022-11-15T05:53:46;39.97;;;25.50;;
11771;SDS011;12556;55.748;13.194;2022-11-15T05:56:14;42.77;;;27.43;;
11771;SDS011;12556;55.748;13.194;2022-11-15T05:58:41;42.53;;;25.57;;
11771;SDS011;12556;55.748;13.194;2022-11-15T06:01:09;42.00;;;26.90;;
11771;SDS011;12556;55.748;13.194;2022-11-15T06:03:37;38.87;;;25.77;;
11771;SDS011;12556;55.748;13.194;2022-11-15T06:06:04;44.47;;;27.33;;
11771;SDS011;12556;55.748;13.194;2022-11-15T06:08:31;39.83;;;24.60;;
11771;SDS011;12556;55.748;13.194;2022-11-15T06:11:02;38.80;;;25.30;;
11771;SDS011;12556;55.748;13.194;2022-11-15T06:13:30;43.80;;;27.23;;
11771;SDS011;12556;55.748;13.194;2022-11-15T06:15:57;43.03;;;26.50;;
11771;SDS011;12556;55.748;13.194;2022-11-15T06:18:24;37.73;;;25.43;;
11771;SDS011;12556;55.748;13.194;2022-11-15T06:20:52;44.97;;;26.20;;
11771;SDS011;12556;55.748;13.194;2022-11-15T06:23:19;41.47;;;26.07;;
11771;SDS011;12556;55.748;13.194;2022-11-15T06:25:46;38.87;;;26.77;;
11771;SDS011;12556;55.748;13.194;2022-11-15T06:28:12;44.80;;;25.93;;
11771;SDS011;12556;55.748;13.194;2022-11-15T06:30:39;41.77;;;26.00;;
11771;SDS011;12556;55.748;13.194;2022-11-15T06:33:06;41.73;;;25.73;;
11771;SDS011;12556;55.748;13.194;2022-11-15T06:35:34;35.60;;;24.00;;
11771;SDS011;12556;55.748;13.194;2022-11-15T06:38:04;43.47;;;27.00;;
11771;SDS011;12556;55.748;13.194;2022-11-15T06:40:33;40.70;;;25.73;;
11771;SDS011;12556;55.748;13.194;2022-11-15T06:43:01;39.13;;;25.83;;
11771;SDS011;12556;55.748;13.194;2022-11-15T06:45:28;36.47;;;25.73;;
11771;SDS011;12556;55.748;13.194;2022-11-15T06:47:56;43.83;;;26.13;;
11771;SDS011;12556;55.748;13.194;2022-11-15T06:50:23;40.80;;;25.43;;
11771;SDS011;12556;55.748;13.194;2022-11-15T06:52:50;40.93;;;25.13;;
11771;SDS011;12556;55.748;13.194;2022-11-15T06:55:19;41.30;;;25.30;;
11771;SDS011;12556;55.748;13.194;2022-11-15T06:57:46;36.53;;;25.10;;
11771;SDS011;12556;55.748;13.194;2022-11-15T07:00:14;39.57;;;25.83;;
11771;SDS011;12556;55.748;13.194;2022-11-15T07:02:42;41.73;;;25.57;;
11771;SDS011;12556;55.748;13.194;2022-11-15T07:05:09;44.63;;;26.70;;
11771;SDS011;12556;55.748;13.194;2022-11-15T07:07:37;43.60;;;26.27;;
11771;SDS011;12556;55.748;13.194;2022-11-15T07:10:04;39.50;;;25.03;;
11771;SDS011;12556;55.748;13.194;2022-11-15T07:12:33;41.70;;;26.17;;
11771;SDS011;12556;55.748;13.194;2022-11-15T07:15:00;36.83;;;25.67;;
11771;SDS011;12556;55.748;13.194;2022-11-15T07:17:27;37.70;;;24.77;;
11771;SDS011;12556;55.748;13.194;2022-11-15T07:19:54;38.03;;;24.30;;
11771;SDS011;12556;55.748;13.194;2022-11-15T07:22:21;41.17;;;25.93;;
11771;SDS011;12556;55.748;13.194;2022-11-15T07:24:47;38.50;;;25.40;;
11771;SDS011;12556;55.748;13.194;2022-11-15T07:27:14;36.23;;;24.27;;
11771;SDS011;12556;55.748;13.194;2022-11-15T07:29:42;37.97;;;25.03;;
11771;SDS011;12556;55.748;13.194;2022-11-15T07:32:09;39.50;;;24.87;;
11771;SDS011;12556;55.748;13.194;2022-11-15T07:34:36;39.67;;;26.03;;
11771;SDS011;12556;55.748;13.194;2022-11-15T07:37:03;38.07;;;24.43;;
11771;SDS011;12556;55.748;13.194;2022-11-15T07:39:30;36.57;;;23.83;;
11771;SDS011;12556;55.748;13.194;2022-11-15T07:41:57;36.57;;;24.47;;
11771;SDS011;12556;55.748;13.194;2022-11-15T07:44:37;42.77;;;25.13;;
11771;SDS011;12556;55.748;13.194;2022-11-15T07:47:06;39.73;;;25.30;;
11771;SDS011;12556;55.748;13.194;2022-11-15T07:49:32;37.40;;;26.40;;
11771;SDS011;12556;55.748;13.194;2022-11-15T07:51:59;39.20;;;24.47;;
11771;SDS011;12556;55.748;13.194;2022-11-15T07:54:26;37.20;;;24.63;;
11771;SDS011;12556;55.748;13.194;2022-11-15T07:56:53;42.47;;;26.40;;
11771;SDS011;12556;55.748;13.194;2022-11-15T07:59:20;37.33;;;24.33;;
11771;SDS011;12556;55.748;13.194;2022-11-15T08:01:46;36.10;;;25.13;;
11771;SDS011;12556;55.748;13.194;2022-11-15T08:04:15;37.50;;;24.90;;
11771;SDS011;12556;55.748;13.194;2022-11-15T08:06:42;35.83;;;24.43;;
11771;SDS011;12556;55.748;13.194;2022-11-15T08:09:09;40.03;;;25.30;;
11771;SDS011;12556;55.748;13.194;2022-11-15T08:11:35;40.23;;;26.00;;
11771;SDS011;12556;55.748;13.194;2022-11-15T08:14:02;37.87;;;26.80;;
11771;SDS011;12556;55.748;13.194;2022-11-15T08:16:29;39.37;;;24.73;;
11771;SDS011;12556;55.748;13.194;2022-11-15T08:18:56;38.17;;;25.13;;
11771;SDS011;12556;55.748;13.194;2022-11-15T08:21:24;38.90;;;26.23;;
11771;SDS011;12556;55.748;13.194;2022-11-15T08:23:51;37.70;;;25.27;;
11771;SDS011;12556;55.748;13.194;2022-11-15T08:26:18;38.93;;;26.83;;
11771;SDS011;12556;55.748;13.194;2022-11-15T08:28:45;39.77;;;26.80;;
11771;SDS011;12556;55.748;13.194;2022-11-15T08:31:13;38.80;;;25.73;;
11771;SDS011;12556;55.748;13.194;2022-11-15T08:33:41;38.67;;;26.13;;
11771;SDS011;12556;55.748;13.194;2022-11-15T08:36:11;40.20;;;26.37;;
11771;SDS011;12556;55.748;13.194;2022-11-15T08:38:41;37.20;;;25.93;;
11771;SDS011;12556;55.748;13.194;2022-11-15T08:41:11;41.63;;;26.60;;
11771;SDS011;12556;55.748;13.194;2022-11-15T08:43:40;39.93;;;26.50;;
11771;SDS011;12556;55.748;13.194;2022-11-15T08:46:08;41.73;;;27.90;;
11771;SDS011;12556;55.748;13.194;2022-11-15T08:48:37;38.07;;;24.83;;
11771;SDS011;12556;55.748;13.194;2022-11-15T08:51:04;39.60;;;26.63;;
11771;SDS011;12556;55.748;13.194;2022-11-15T08:53:31;38.80;;;26.00;;
11771;SDS011;12556;55.748;13.194;2022-11-15T08:56:00;39.97;;;26.87;;
11771;SDS011;12556;55.748;13.194;2022-11-15T08:58:27;41.03;;;28.07;;
11771;SDS011;12556;55.748;13.194;2022-11-15T09:00:54;39.20;;;27.53;;
11771;SDS011;12556;55.748;13.194;2022-11-15T09:03:21;40.93;;;26.47;;
11771;SDS011;12556;55.748;13.194;2022-11-15T09:05:48;36.63;;;25.90;;
11771;SDS011;12556;55.748;13.194;2022-11-15T09:08:19;39.37;;;27.90;;
11771;SDS011;12556;55.748;13.194;2022-11-15T09:10:46;43.33;;;26.93;;
11771;SDS011;12556;55.748;13.194;2022-11-15T09:13:15;41.13;;;27.07;;
11771;SDS011;12556;55.748;13.194;2022-11-15T09:15:44;41.30;;;27.70;;
11771;SDS011;12556;55.748;13.194;2022-11-15T09:18:11;37.17;;;26.33;;
11771;SDS011;12556;55.748;13.194;2022-11-15T09:20:38;41.87;;;27.60;;
11771;SDS011;12556;55.748;13.194;2022-11-15T09:23:05;38.83;;;26.80;;
11771;SDS011;12556;55.748;13.194;2022-11-15T09:25:33;39.90;;;25.47;;
11771;SDS011;12556;55.748;13.194;2022-11-15T09:28:00;40.67;;;27.17;;
11771;SDS011;12556;55.748;13.194;2022-11-15T09:30:33;37.47;;;25.83;;
11771;SDS011;12556;55.748;13.194;2022-11-15T09:33:05;39.63;;;27.53;;
11771;SDS011;12556;55.748;13.194;2022-11-15T09:35:32;38.30;;;27.00;;
11771;SDS011;12556;55.748;13.194;2022-11-15T09:37:59;39.00;;;26.30;;
11771;SDS011;12556;55.748;13.194;2022-11-15T09:40:26;39.83;;;26.13;;
11771;SDS011;12556;55.748;13.194;2022-11-15T09:43:00;39.37;;;27.30;;
11771;SDS011;12556;55.748;13.194;2022-11-15T09:45:45;37.40;;;26.83;;
11771;SDS011;12556;55.748;13.194;2022-11-15T09:48:33;39.03;;;26.30;;
11771;SDS011;12556;55.748;13.194;2022-11-15T09:51:13;37.10;;;25.70;;
11771;SDS011;12556;55.748;13.194;2022-11-15T09:53:47;37.60;;;26.07;;
11771;SDS011;12556;55.748;13.194;2022-11-15T09:56:21;36.60;;;25.93;;
11771;SDS011;12556;55.748;13.194;2022-11-15T09:58:53;39.17;;;25.10;;
11771;SDS011;12556;55.748;13.194;2022-11-15T10:01:33;37.63;;;25.67;;
11771;SDS011;12556;55.748;13.194;2022-11-15T10:04:11;38.47;;;24.90;;
11771;SDS011;12556;55.748;13.194;2022-11-15T10:06:40;37.10;;;25.27;;
11771;SDS011;12556;55.748;13.194;2022-11-15T10:09:13;33.70;;;23.40;;
11771;SDS011;12556;55.748;13.194;2022-11-15T10:11:42;36.13;;;24.90;;
11771;SDS011;12556;55.748;13.194;2022-11-15T10:14:10;32.43;;;22.47;;
11771;SDS011;12556;55.748;13.194;2022-11-15T10:16:53;35.37;;;22.70;;
11771;SDS011;12556;55.748;13.194;2022-11-15T10:19:34;36.67;;;24.47;;
11771;SDS011;12556;55.748;13.194;2022-11-15T10:22:12;34.53;;;22.73;;
11771;SDS011;12556;55.748;13.194;2022-11-15T10:24:47;34.93;;;22.90;;
11771;SDS011;12556;55.748;13.194;2022-11-15T10:27:17;33.20;;;22.83;;
11771;SDS011;12556;55.748;13.194;2022-11-15T10:29:45;37.17;;;23.37;;
11771;SDS011;12556;55.748;13.194;2022-11-15T10:32:15;34.83;;;23.83;;
11771;SDS011;12556;55.748;13.194;2022-11-15T10:34:43;31.53;;;22.80;;
11771;SDS011;12556;55.748;13.194;2022-11-15T10:37:10;31.63;;;22.50;;
11771;SDS011;12556;55.748;13.194;2022-11-15T10:39:37;32.13;;;21.90;;
11771;SDS011;12556;55.748;13.194;2022-11-15T10:42:17;34.10;;;22.27;;
11771;SDS011;12556;55.748;13.194;2022-11-15T10:44:52;31.37;;;22.27;;
11771;SDS011;12556;55.748;13.194;2022-11-15T10:47:22;29.03;;;22.00;;
11771;SDS011;12556;55.748;13.194;2022-11-15T10:49:57;34.57;;;22.90;;
11771;SDS011;12556;55.748;13.194;2022-11-15T10:52:26;32.53;;;21.47;;
11771;SDS011;12556;55.748;13.194;2022-11-15T10:54:55;35.20;;;22.50;;
11771;SDS011;12556;55.748;13.194;2022-11-15T10:57:26;30.97;;;20.97;;
11771;SDS011;12556;55.748;13.194;2022-11-15T10:59:56;32.60;;;21.37;;
11771;SDS011;12556;55.748;13.194;2022-11-15T11:02:30;29.30;;;21.10;;
11771;SDS011;12556;55.748;13.194;2022-11-15T11:04:59;33.80;;;22.90;;
11771;SDS011;12556;55.748;13.194;2022-11-15T11:07:27;29.50;;;20.73;;
11771;SDS011;12556;55.748;13.194;2022-11-15T11:09:56;31.07;;;21.10;;
11771;SDS011;12556;55.748;13.194;2022-11-15T11:12:29;35.57;;;21.83;;
11771;SDS011;12556;55.748;13.194;2022-11-15T11:14:58;33.67;;;23.07;;
11771;SDS011;12556;55.748;13.194;2022-11-15T11:17:31;29.10;;;20.50;;
11771;SDS011;12556;55.748;13.194;2022-11-15T11:20:18;35.33;;;21.63;;
11771;SDS011;12556;55.748;13.194;2022-11-15T11:22:54;35.20;;;22.33;;
11771;SDS011;12556;55.748;13.194;2022-11-15T11:25:33;31.67;;;22.80;;
11771;SDS011;12556;55.748;13.194;2022-11-15T11:30:56;33.67;;;22.63;;
11771;SDS011;12556;55.748;13.194;2022-11-15T11:33:32;30.80;;;20.53;;
11771;SDS011;12556;55.748;13.194;2022-11-15T11:36:03;36.50;;;23.10;;
11771;SDS011;12556;55.748;13.194;2022-11-15T11:38:44;36.20;;;22.60;;
11771;SDS011;12556;55.748;13.194;2022-11-15T11:41:20;37.60;;;23.67;;
11771;SDS011;12556;55.748;13.194;2022-11-15T11:44:02;38.70;;;22.50;;
11771;SDS011;12556;55.748;13.194;2022-11-15T11:46:41;35.77;;;23.80;;
11771;SDS011;12556;55.748;13.194;2022-11-15T11:49:18;39.00;;;24.27;;
11771;SDS011;12556;55.748;13.194;2022-11-15T11:51:49;37.23;;;24.27;;
11771;SDS011;12556;55.748;13.194;2022-11-15T11:54:22;38.37;;;23.73;;
11771;SDS011;12556;55.748;13.194;2022-11-15T11:56:54;35.67;;;23.67;;
11771;SDS011;12556;55.748;13.194;2022-11-15T11:59:25;38.33;;;25.10;;
11771;SDS011;12556;55.748;13.194;2022-11-15T12:02:08;40.53;;;23.83;;
11771;SDS011;12556;55.748;13.194;2022-11-15T12:04:43;38.47;;;24.93;;
11771;SDS011;12556;55.748;13.194;2022-11-15T12:07:16;35.93;;;23.57;;
11771;SDS011;12556;55.748;13.194;2022-11-15T12:09:49;39.40;;;24.77;;
11771;SDS011;12556;55.748;13.194;2022-11-15T12:12:23;38.13;;;24.37;;
11771;SDS011;12556;55.748;13.194;2022-11-15T12:14:56;34.63;;;22.13;;
11771;SDS011;12556;55.748;13.194;2022-11-15T12:17:29;33.27;;;22.70;;
11771;SDS011;12556;55.748;13.194;2022-11-15T12:19:59;35.40;;;21.17;;
11771;SDS011;12556;55.748;13.194;2022-11-15T12:22:33;33.53;;;21.73;;
11771;SDS011;12556;55.748;13.194;2022-11-15T12:25:05;33.03;;;22.47;;
11771;SDS011;12556;55.748;13.194;2022-11-15T12:27:40;36.67;;;21.97;;
11771;SDS011;12556;55.748;13.194;2022-11-15T12:30:11;32.87;;;22.47;;
11771;SDS011;12556;55.748;13.194;2022-11-15T12:32:48;35.70;;;23.23;;
11771;SDS011;12556;55.748;13.194;2022-11-15T12:35:23;33.77;;;21.43;;
11771;SDS011;12556;55.748;13.194;2022-11-15T12:37:53;32.97;;;20.03;;
11771;SDS011;12556;55.748;13.194;2022-11-15T12:43:38;28.33;;;17.80;;
11771;SDS011;12556;55.748;13.194;2022-11-15T12:46:08;25.70;;;18.43;;
11771;SDS011;12556;55.748;13.194;2022-11-15T12:51:18;26.80;;;17.40;;
11771;SDS011;12556;55.748;13.194;2022-11-15T12:53:46;26.43;;;17.57;;
11771;SDS011;12556;55.748;13.194;2022-11-15T12:56:18;28.47;;;17.57;;
11771;SDS011;12556;55.748;13.194;2022-11-15T12:58:48;29.07;;;18.07;;
11771;SDS011;12556;55.748;13.194;2022-11-15T13:04:23;26.57;;;18.37;;
11771;SDS011;12556;55.748;13.194;2022-11-15T13:06:53;23.97;;;16.30;;
11771;SDS011;12556;55.748;13.194;2022-11-15T13:15:33;29.43;;;16.90;;
11771;SDS011;12556;55.748;13.194;2022-11-15T13:21:00;25.37;;;16.40;;
11771;SDS011;12556;55.748;13.194;2022-11-15T13:23:53;23.37;;;16.30;;
11771;SDS011;12556;55.748;13.194;2022-11-15T13:26:21;20.90;;;15.40;;
11771;SDS011;12556;55.748;13.194;2022-11-15T13:28:48;24.97;;;15.77;;
11771;SDS011;12556;55.748;13.194;2022-11-15T13:31:23;25.33;;;15.93;;
11771;SDS011;12556;55.748;13.194;2022-11-15T13:33:53;22.00;;;14.47;;
11771;SDS011;12556;55.748;13.194;2022-11-15T13:36:23;23.13;;;15.23;;
11771;SDS011;12556;55.748;13.194;2022-11-15T13:38:55;22.33;;;14.60;;
11771;SDS011;12556;55.748;13.194;2022-11-15T13:41:25;21.00;;;14.93;;
11771;SDS011;12556;55.748;13.194;2022-11-15T13:43:53;22.00;;;14.73;;
11771;SDS011;12556;55.748;13.194;2022-11-15T13:46:22;21.30;;;14.70;;
11771;SDS011;12556;55.748;13.194;2022-11-15T13:48:54;24.53;;;15.27;;
11771;SDS011;12556;55.748;13.194;2022-11-15T13:51:25;20.17;;;13.87;;
11771;SDS011;12556;55.748;13.194;2022-11-15T13:54:03;20.23;;;14.10;;
11771;SDS011;12556;55.748;13.194;2022-11-15T13:56:35;21.70;;;13.97;;
11771;SDS011;12556;55.748;13.194;2022-11-15T13:59:08;18.00;;;13.73;;
11771;SDS011;12556;55.748;13.194;2022-11-15T14:01:35;21.87;;;14.63;;
11771;SDS011;12556;55.748;13.194;2022-11-15T14:04:03;21.13;;;13.70;;
11771;SDS011;12556;55.748;13.194;2022-11-15T14:06:30;20.10;;;13.90;;
11771;SDS011;12556;55.748;13.194;2022-11-15T14:09:02;19.03;;;13.20;;
11771;SDS011;12556;55.748;13.194;2022-11-15T14:11:48;19.00;;;13.63;;
11771;SDS011;12556;55.748;13.194;2022-11-15T14:14:16;21.47;;;14.40;;
11771;SDS011;12556;55.748;13.194;2022-11-15T14:16:47;19.33;;;13.00;;
11771;SDS011;12556;55.748;13.194;2022-11-15T14:22:08;14.43;;;11.90;;
11771;SDS011;12556;55.748;13.194;2022-11-15T14:24:42;17.53;;;12.53;;
11771;SDS011;12556;55.748;13.194;2022-11-15T14:27:17;17.97;;;13.83;;
11771;SDS011;12556;55.748;13.194;2022-11-15T14:29:49;18.33;;;12.27;;
11771;SDS011;12556;55.748;13.194;2022-11-15T14:32:16;17.30;;;11.90;;
11771;SDS011;12556;55.748;13.194;2022-11-15T14:34:46;15.40;;;11.77;;
11771;SDS011;12556;55.748;13.194;2022-11-15T14:37:18;16.23;;;12.80;;
11771;SDS011;12556;55.748;13.194;2022-11-15T14:39:49;15.20;;;12.77;;
11771;SDS011;12556;55.748;13.194;2022-11-15T14:42:17;16.27;;;12.43;;
11771;SDS011;12556;55.748;13.194;2022-11-15T14:44:44;15.23;;;12.03;;
11771;SDS011;12556;55.748;13.194;2022-11-15T14:47:11;17.37;;;11.77;;
11771;SDS011;12556;55.748;13.194;2022-11-15T14:49:38;15.53;;;11.33;;
11771;SDS011;12556;55.748;13.194;2022-11-15T14:52:07;12.90;;;10.50;;